Time;durP1;ratioP1;P1;durP2;ratioP2;P2;SDS_P1;SDS_P2;PMS_P1;PMS_P2;Temp;Humidity;BMP_temperature;BMP_pressure;BME280_temperature;BME280_humidity;BME280_pressure;Samples;Min_cycle;Max_cycle;Signal;HPM_P1;HPM_P2
2024/01/31 00:02:22;;;;;;;17.43;12.83;;;9.10;99.90;;;;;;5053150;28;20532;-56
2024/01/31 00:04:49;;;;;;;14.90;11.73;;;9.10;99.90;;;;;;5053062;28;20511;-56
2024/01/31 00:07:16;;;;;;;15.47;11.60;;;9.10;99.90;;;;;;5053191;28;20442;-56
2024/01/31 00:09:44;;;;;;;17.23;12.83;;;9.10;99.90;;;;;;5053267;28;20449;-56
2024/01/31 00:12:10;;;;;;;16.60;13.27;;;9.10;99.90;;;;;;5053125;28;20453;-57
2024/01/31 00:14:37;;;;;;;18.00;13.57;;;9.10;99.90;;;;;;5053222;28;20461;-56
2024/01/31 00:17:04;;;;;;;17.70;12.60;;;9.00;99.90;;;;;;5053188;28;20804;-56
2024/01/31 00:19:31;;;;;;;16.63;12.23;;;9.00;99.90;;;;;;5053120;28;20453;-56
2024/01/31 00:21:58;;;;;;;19.20;12.80;;;9.10;99.90;;;;;;5053137;28;20445;-56
2024/01/31 00:24:24;;;;;;;16.87;12.83;;;9.10;99.90;;;;;;5053048;28;20469;-56
2024/01/31 00:26:53;;;;;;;20.63;12.47;;;9.10;99.90;;;;;;5053001;28;20951;-56
2024/01/31 00:29:19;;;;;;;21.70;12.97;;;9.10;99.90;;;;;;5053121;28;20442;-56
2024/01/31 00:31:46;;;;;;;17.93;12.90;;;9.10;99.90;;;;;;5053513;28;20456;-57
2024/01/31 00:34:13;;;;;;;16.30;11.57;;;9.20;99.90;;;;;;5052932;28;20465;-56
2024/01/31 00:36:39;;;;;;;20.53;12.50;;;9.20;99.90;;;;;;5052666;28;20811;-56
2024/01/31 00:39:06;;;;;;;15.40;12.00;;;9.20;99.90;;;;;;5052864;28;20453;-56
2024/01/31 00:41:33;;;;;;;18.30;12.20;;;9.20;99.90;;;;;;5053035;28;20441;-56
2024/01/31 00:44:01;;;;;;;22.47;13.97;;;9.20;99.90;;;;;;5053221;28;20468;-56
2024/01/31 00:46:27;;;;;;;16.83;11.93;;;9.20;99.90;;;;;;5052550;28;20488;-56
2024/01/31 00:48:55;;;;;;;17.33;12.33;;;9.20;99.90;;;;;;5052900;28;20551;-56
2024/01/31 00:51:22;;;;;;;18.30;12.27;;;9.20;99.90;;;;;;5056614;28;20453;-56
2024/01/31 00:53:48;;;;;;;20.27;13.73;;;9.20;99.90;;;;;;5056337;28;20474;-56
2024/01/31 00:56:15;;;;;;;16.80;12.30;;;9.20;99.90;;;;;;5055783;28;20449;-56
2024/01/31 00:58:42;;;;;;;19.67;12.80;;;9.20;99.90;;;;;;5055767;28;20448;-56
2024/01/31 01:01:10;;;;;;;18.33;13.70;;;9.20;99.90;;;;;;5056279;28;20453;-55
2024/01/31 01:03:36;;;;;;;18.97;13.30;;;9.20;99.90;;;;;;5056009;28;20465;-56
2024/01/31 01:06:04;;;;;;;20.63;13.20;;;9.20;99.90;;;;;;5056238;28;20481;-55
2024/01/31 01:08:31;;;;;;;20.17;14.10;;;9.10;99.90;;;;;;5055988;28;20947;-56
2024/01/31 01:10:57;;;;;;;19.13;13.83;;;9.10;99.90;;;;;;5055988;28;20441;-56
2024/01/31 01:13:24;;;;;;;19.43;13.47;;;9.10;99.90;;;;;;5055644;28;20943;-56
2024/01/31 01:15:51;;;;;;;19.50;14.27;;;9.00;99.90;;;;;;5056371;28;20848;-56
2024/01/31 01:18:19;;;;;;;20.30;14.57;;;9.00;99.90;;;;;;5056114;28;20445;-56
2024/01/31 01:20:46;;;;;;;24.03;17.60;;;9.00;99.90;;;;;;5055951;28;20446;-56
2024/01/31 01:23:14;;;;;;;21.97;15.40;;;9.00;99.90;;;;;;5055663;28;20931;-56
2024/01/31 01:25:41;;;;;;;23.23;15.97;;;9.00;99.90;;;;;;5055812;28;20481;-55
2024/01/31 01:28:08;;;;;;;21.33;15.17;;;9.00;99.90;;;;;;5056074;28;20453;-56
2024/01/31 01:30:35;;;;;;;20.83;15.93;;;9.00;99.90;;;;;;5055989;28;20456;-56
2024/01/31 01:33:01;;;;;;;26.03;16.50;;;9.00;99.90;;;;;;5055858;28;20469;-55
2024/01/31 01:35:30;;;;;;;24.47;17.33;;;9.00;99.90;;;;;;5055456;28;20458;-55
2024/01/31 01:37:56;;;;;;;23.70;16.00;;;9.00;99.90;;;;;;5055796;28;20952;-55
2024/01/31 01:40:23;;;;;;;22.57;15.17;;;9.00;99.90;;;;;;5055417;28;20800;-56
2024/01/31 01:42:50;;;;;;;24.53;16.57;;;9.00;99.90;;;;;;5055675;28;20473;-56
2024/01/31 01:45:16;;;;;;;22.50;16.43;;;8.90;99.90;;;;;;5055415;28;20485;-56
2024/01/31 01:47:48;;;;;;;26.47;17.87;;;8.90;99.90;;;;;;5055602;28;20442;-56
2024/01/31 01:50:15;;;;;;;24.93;17.43;;;8.90;99.90;;;;;;5055548;28;20531;-56
2024/01/31 01:52:43;;;;;;;27.90;18.60;;;8.90;99.90;;;;;;5055300;28;20457;-56
2024/01/31 01:55:10;;;;;;;25.20;17.67;;;8.90;99.90;;;;;;5055216;28;20847;-56
2024/01/31 01:57:38;;;;;;;25.30;18.13;;;8.90;99.90;;;;;;5055559;28;20441;-55
2024/01/31 02:00:09;;;;;;;30.53;19.43;;;9.00;99.90;;;;;;5055332;28;20481;-56
2024/01/31 02:02:36;;;;;;;26.13;17.77;;;9.00;99.90;;;;;;5055164;28;20430;-56
2024/01/31 02:05:03;;;;;;;29.40;18.23;;;9.00;99.90;;;;;;5055620;28;20466;-56
2024/01/31 02:07:30;;;;;;;28.13;19.23;;;9.00;99.90;;;;;;5055518;28;20438;-55
2024/01/31 02:09:59;;;;;;;29.20;20.27;;;9.00;99.90;;;;;;5055448;28;20442;-56
2024/01/31 02:12:25;;;;;;;27.33;19.53;;;9.00;99.90;;;;;;5055731;28;20449;-56
2024/01/31 02:14:53;;;;;;;27.43;19.80;;;9.00;99.90;;;;;;5055119;28;20532;-56
2024/01/31 02:17:19;;;;;;;29.27;20.60;;;9.00;99.90;;;;;;5054702;28;21026;-56
2024/01/31 02:19:46;;;;;;;31.10;20.30;;;9.00;99.90;;;;;;5054685;28;20958;-56
2024/01/31 02:22:18;;;;;;;31.57;20.00;;;9.10;99.90;;;;;;5055161;28;20441;-56
2024/01/31 02:24:44;;;;;;;27.80;20.00;;;9.10;99.90;;;;;;5055024;28;20473;-56
2024/01/31 02:27:11;;;;;;;31.20;20.53;;;9.10;99.90;;;;;;5055158;28;20502;-56
2024/01/31 02:29:38;;;;;;;34.90;21.03;;;9.10;99.90;;;;;;5055013;28;20444;-56
2024/01/31 02:32:06;;;;;;;31.43;21.13;;;9.20;99.90;;;;;;5055009;28;20449;-56
2024/01/31 02:34:33;;;;;;;29.70;20.57;;;9.20;99.90;;;;;;5054957;28;20829;-57
2024/01/31 02:36:59;;;;;;;31.57;19.10;;;9.20;99.90;;;;;;5054842;28;20442;-58
2024/01/31 02:39:27;;;;;;;32.10;20.90;;;9.20;99.90;;;;;;5054506;28;20834;-58
2024/01/31 02:41:54;;;;;;;31.43;20.87;;;9.20;99.90;;;;;;5054757;28;20454;-58
2024/01/31 02:44:23;;;;;;;30.07;21.90;;;9.20;99.90;;;;;;5054487;28;20515;-57
2024/01/31 02:46:49;;;;;;;31.83;20.03;;;9.20;99.90;;;;;;5053897;28;20477;-57
2024/01/31 02:49:16;;;;;;;32.50;22.30;;;9.30;99.90;;;;;;5054324;28;20442;-58
2024/01/31 02:51:43;;;;;;;30.67;21.07;;;9.30;99.90;;;;;;5054178;28;20449;-57
2024/01/31 02:54:09;;;;;;;26.07;19.53;;;9.30;99.90;;;;;;5054195;28;20461;-57
2024/01/31 02:56:37;;;;;;;31.83;23.03;;;9.30;99.90;;;;;;5054169;28;20446;-57
2024/01/31 02:59:04;;;;;;;29.27;20.53;;;9.30;99.90;;;;;;5054101;28;20808;-57
2024/01/31 03:01:31;;;;;;;32.70;22.70;;;9.30;99.90;;;;;;5053948;28;20446;-57
2024/01/31 03:03:57;;;;;;;30.83;21.10;;;9.40;99.90;;;;;;5053975;28;20465;-57
2024/01/31 03:06:24;;;;;;;30.90;20.13;;;9.40;99.90;;;;;;5053902;28;20552;-57
2024/01/31 03:08:51;;;;;;;27.10;19.90;;;9.30;99.90;;;;;;5053633;28;20958;-57
2024/01/31 03:11:17;;;;;;;27.70;19.57;;;9.30;99.90;;;;;;5053594;28;20970;-57
2024/01/31 03:13:46;;;;;;;27.07;18.07;;;9.40;99.90;;;;;;5053080;28;20878;-57
2024/01/31 03:16:13;;;;;;;24.67;16.60;;;9.40;99.90;;;;;;5053646;28;20477;-58
2024/01/31 03:18:39;;;;;;;23.93;16.97;;;9.40;99.90;;;;;;5053498;28;20959;-57
2024/01/31 03:21:07;;;;;;;24.40;16.80;;;9.40;99.90;;;;;;5053971;28;20446;-57
2024/01/31 03:23:34;;;;;;;24.00;15.33;;;9.40;99.90;;;;;;5053597;28;20465;-57
2024/01/31 03:26:00;;;;;;;23.17;13.27;;;9.40;99.90;;;;;;5053802;28;20473;-58
2024/01/31 03:28:27;;;;;;;19.53;12.67;;;9.40;99.90;;;;;;5053912;28;20441;-57
2024/01/31 03:30:55;;;;;;;19.90;12.53;;;9.40;99.90;;;;;;5053895;28;20453;-57
2024/01/31 03:33:21;;;;;;;18.17;12.17;;;9.40;99.90;;;;;;5053474;28;20449;-57
2024/01/31 03:35:48;;;;;;;17.43;11.73;;;9.40;99.90;;;;;;5053611;28;20509;-57
2024/01/31 03:38:14;;;;;;;17.37;12.40;;;9.40;99.90;;;;;;5053805;28;20207;-57
2024/01/31 03:40:41;;;;;;;18.93;10.30;;;9.40;99.90;;;;;;5053690;28;20450;-57
2024/01/31 03:43:08;;;;;;;14.40;10.70;;;9.40;99.90;;;;;;5053238;28;20449;-58
2024/01/31 03:45:34;;;;;;;15.43;9.17;;;9.40;99.90;;;;;;5053405;28;20469;-57
2024/01/31 03:48:02;;;;;;;16.53;10.30;;;9.40;99.90;;;;;;5053630;28;20441;-57
2024/01/31 03:50:29;;;;;;;12.93;9.73;;;9.40;99.90;;;;;;5053309;28;20448;-57
2024/01/31 03:52:56;;;;;;;16.37;9.53;;;9.40;99.90;;;;;;5052954;28;20458;-57
2024/01/31 03:55:22;;;;;;;15.13;9.93;;;9.40;99.90;;;;;;5052963;28;20819;-57
2024/01/31 03:57:49;;;;;;;15.73;9.70;;;9.40;99.90;;;;;;5053519;28;20448;-57
2024/01/31 04:00:16;;;;;;;12.07;8.50;;;9.40;99.90;;;;;;5053375;28;20441;-57
2024/01/31 04:02:43;;;;;;;14.43;8.70;;;9.40;99.90;;;;;;5053162;28;20438;-57
2024/01/31 04:05:11;;;;;;;15.60;9.30;;;9.40;99.90;;;;;;5053014;28;20466;-57
2024/01/31 04:07:38;;;;;;;13.73;9.27;;;9.40;99.90;;;;;;5052919;28;20477;-57
2024/01/31 04:10:06;;;;;;;13.70;8.57;;;9.40;99.90;;;;;;5053027;28;20442;-57
2024/01/31 04:12:33;;;;;;;13.37;8.37;;;9.40;99.90;;;;;;5053255;28;20445;-57
2024/01/31 04:14:59;;;;;;;18.40;9.00;;;9.40;99.90;;;;;;5053129;28;20466;-57
2024/01/31 04:17:26;;;;;;;11.40;7.87;;;9.40;99.90;;;;;;5053146;28;20449;-57
2024/01/31 04:19:53;;;;;;;10.70;8.73;;;9.40;99.90;;;;;;5053078;28;20449;-57
2024/01/31 04:22:21;;;;;;;11.60;8.37;;;9.40;99.90;;;;;;5052748;28;20935;-57
2024/01/31 04:24:47;;;;;;;13.83;8.83;;;9.40;99.90;;;;;;5055512;28;20910;-57
2024/01/31 04:27:14;;;;;;;9.67;7.10;;;9.40;99.90;;;;;;5056821;28;20473;-56
2024/01/31 04:29:41;;;;;;;10.90;7.30;;;9.40;99.90;;;;;;5057460;28;20451;-57
2024/01/31 04:32:08;;;;;;;11.10;6.97;;;9.40;99.90;;;;;;5056575;28;20962;-57
2024/01/31 04:34:38;;;;;;;10.60;6.93;;;9.40;99.90;;;;;;5056822;28;20515;-57
2024/01/31 04:37:04;;;;;;;6.00;5.40;;;9.40;99.90;;;;;;5056851;28;20444;-57
2024/01/31 04:39:32;;;;;;;12.57;6.50;;;9.40;99.90;;;;;;5057112;28;20442;-57
2024/01/31 04:42:00;;;;;;;7.60;5.57;;;9.40;99.90;;;;;;5056823;28;20440;-57
2024/01/31 04:44:27;;;;;;;8.60;5.70;;;9.40;99.90;;;;;;5056973;28;20824;-56
2024/01/31 04:46:54;;;;;;;8.13;5.13;;;9.40;99.90;;;;;;5056670;28;20489;-57
2024/01/31 04:49:20;;;;;;;10.80;6.57;;;9.40;99.90;;;;;;5056542;28;20449;-56
2024/01/31 04:51:47;;;;;;;11.00;6.30;;;9.40;99.90;;;;;;5056294;28;20445;-57
2024/01/31 04:54:14;;;;;;;7.80;6.57;;;9.40;99.90;;;;;;5056695;28;20465;-57
2024/01/31 04:56:42;;;;;;;8.50;6.40;;;9.40;99.90;;;;;;5056552;28;20444;-57
2024/01/31 04:59:08;;;;;;;7.47;5.57;;;9.40;99.90;;;;;;5056441;28;20448;-57
2024/01/31 05:01:35;;;;;;;12.20;5.93;;;9.40;99.90;;;;;;5056322;28;20449;-57
2024/01/31 05:04:03;;;;;;;8.50;5.47;;;9.40;99.90;;;;;;5056293;28;20544;-56
2024/01/31 05:06:30;;;;;;;6.00;5.23;;;9.40;99.90;;;;;;5056228;28;20481;-57
2024/01/31 05:08:57;;;;;;;13.07;7.47;;;9.40;99.90;;;;;;5056221;28;20460;-57
2024/01/31 05:11:24;;;;;;;10.63;7.80;;;9.40;99.90;;;;;;5056197;28;20446;-56
2024/01/31 05:13:52;;;;;;;11.77;7.00;;;9.30;99.90;;;;;;5056087;28;20465;-56
2024/01/31 05:16:18;;;;;;;9.27;6.67;;;9.30;99.90;;;;;;5055820;28;20963;-57
2024/01/31 05:18:45;;;;;;;10.73;6.90;;;9.30;99.90;;;;;;5056107;28;20445;-56
2024/01/31 05:21:12;;;;;;;9.10;6.93;;;9.30;99.90;;;;;;5056024;28;20446;-56
2024/01/31 05:23:40;;;;;;;12.60;7.20;;;9.30;99.90;;;;;;5056180;28;20465;-56
2024/01/31 05:26:08;;;;;;;8.77;6.17;;;9.30;99.90;;;;;;5056043;28;20452;-56
2024/01/31 05:28:35;;;;;;;11.67;7.17;;;9.30;99.90;;;;;;5055939;28;20470;-57
2024/01/31 05:31:04;;;;;;;11.70;5.93;;;9.30;99.90;;;;;;5055938;28;20442;-57
2024/01/31 05:33:31;;;;;;;8.90;5.70;;;9.30;99.90;;;;;;5056498;28;20450;-56
2024/01/31 05:35:59;;;;;;;7.40;6.30;;;9.20;99.90;;;;;;5055366;28;20438;-56
2024/01/31 05:38:25;;;;;;;9.70;6.73;;;9.20;99.90;;;;;;5055530;28;20481;-56
2024/01/31 05:40:52;;;;;;;11.00;7.60;;;9.20;99.90;;;;;;5055820;28;20450;-56
2024/01/31 05:43:19;;;;;;;10.07;6.30;;;9.20;99.90;;;;;;5055369;28;20814;-56
2024/01/31 05:45:45;;;;;;;10.07;6.37;;;9.20;99.90;;;;;;5055547;28;20437;-56
2024/01/31 05:48:14;;;;;;;8.90;6.93;;;9.20;99.90;;;;;;5055250;28;21064;-56
2024/01/31 05:50:41;;;;;;;8.73;6.20;;;9.20;99.90;;;;;;5055690;28;20473;-56
2024/01/31 05:53:08;;;;;;;14.63;8.70;;;9.20;99.90;;;;;;5055563;28;20457;-56
2024/01/31 05:55:35;;;;;;;13.03;7.47;;;9.20;99.90;;;;;;5055518;28;20462;-56
2024/01/31 05:58:01;;;;;;;13.80;7.90;;;9.20;99.90;;;;;;5055369;28;21014;-56
2024/01/31 06:00:28;;;;;;;12.10;7.40;;;9.20;99.90;;;;;;5055510;28;20449;-56
2024/01/31 06:02:55;;;;;;;9.43;7.07;;;9.20;99.90;;;;;;5055378;28;20457;-57
2024/01/31 06:05:23;;;;;;;10.27;6.97;;;9.20;99.90;;;;;;5055259;28;20466;-56
2024/01/31 06:07:50;;;;;;;9.83;7.63;;;9.20;99.90;;;;;;5055139;28;20488;-56
2024/01/31 06:10:17;;;;;;;10.63;6.83;;;9.20;99.90;;;;;;5055130;28;20452;-56
2024/01/31 06:12:44;;;;;;;10.87;6.43;;;9.20;99.90;;;;;;5055004;28;20446;-56
2024/01/31 06:15:10;;;;;;;11.57;6.97;;;9.20;99.90;;;;;;5054931;28;20519;-56
2024/01/31 06:17:38;;;;;;;16.70;7.80;;;9.20;99.90;;;;;;5054722;28;20954;-56
2024/01/31 06:20:06;;;;;;;12.57;7.70;;;9.20;99.90;;;;;;5055002;28;20450;-56
2024/01/31 06:22:34;;;;;;;14.03;7.70;;;9.20;99.90;;;;;;5055662;28;20911;-56
2024/01/31 06:25:01;;;;;;;11.00;7.07;;;9.20;99.90;;;;;;5054754;28;20469;-56
2024/01/31 06:27:28;;;;;;;12.53;7.70;;;9.20;99.90;;;;;;5054373;28;20476;-56
2024/01/31 06:29:54;;;;;;;12.70;8.20;;;9.20;99.90;;;;;;5054570;28;20536;-56
2024/01/31 06:32:30;;;;;;;13.97;8.40;;;9.20;99.90;;;;;;5054503;28;20450;-56
2024/01/31 06:34:57;;;;;;;13.90;8.10;;;9.20;99.90;;;;;;5054496;28;20930;-56
2024/01/31 06:37:23;;;;;;;16.57;8.77;;;9.20;99.90;;;;;;5054766;28;20449;-56
2024/01/31 06:39:51;;;;;;;9.50;6.80;;;9.20;99.90;;;;;;5054604;28;20813;-57
2024/01/31 06:42:18;;;;;;;19.03;8.30;;;9.10;99.90;;;;;;5054630;28;20471;-56
2024/01/31 06:44:45;;;;;;;14.00;7.73;;;9.20;99.90;;;;;;5054659;28;20458;-56
2024/01/31 06:47:11;;;;;;;15.33;8.60;;;9.10;99.90;;;;;;5053472;28;20485;-56
2024/01/31 06:49:38;;;;;;;12.43;7.77;;;9.10;99.90;;;;;;5054162;28;20441;-56
2024/01/31 06:52:06;;;;;;;17.77;9.70;;;9.10;99.90;;;;;;5054391;28;20461;-56
2024/01/31 06:54:33;;;;;;;16.40;8.30;;;9.10;99.90;;;;;;5054260;28;20461;-56
2024/01/31 06:57:01;;;;;;;11.83;8.03;;;9.00;99.90;;;;;;5054211;28;20446;-56
2024/01/31 06:59:28;;;;;;;12.70;7.10;;;9.00;99.90;;;;;;5054213;28;20448;-56
2024/01/31 07:01:54;;;;;;;13.57;9.63;;;9.00;99.90;;;;;;5053862;28;20841;-56
2024/01/31 07:04:21;;;;;;;15.70;9.43;;;9.00;99.90;;;;;;5054007;28;20465;-56
2024/01/31 07:06:48;;;;;;;12.80;8.70;;;9.00;99.90;;;;;;5053903;28;20489;-56
2024/01/31 07:09:14;;;;;;;18.20;8.80;;;9.00;99.90;;;;;;5054046;28;20449;-56
2024/01/31 07:11:41;;;;;;;16.50;7.97;;;9.00;99.90;;;;;;5053543;28;20939;-56
2024/01/31 07:14:09;;;;;;;16.80;9.87;;;9.00;99.90;;;;;;5053768;28;20462;-56
2024/01/31 07:16:36;;;;;;;20.47;9.50;;;8.90;99.90;;;;;;5054080;28;20457;-56
2024/01/31 07:19:03;;;;;;;17.53;9.30;;;8.90;99.90;;;;;;5053512;28;21010;-56
2024/01/31 07:21:30;;;;;;;15.37;9.40;;;8.90;99.90;;;;;;5053506;28;20857;-56
2024/01/31 07:23:56;;;;;;;15.10;8.37;;;8.90;99.90;;;;;;5053689;28;20454;-56
2024/01/31 07:26:24;;;;;;;18.97;9.80;;;8.90;99.90;;;;;;5053783;28;20469;-56
2024/01/31 07:28:51;;;;;;;20.17;9.83;;;8.90;99.90;;;;;;5053938;28;20507;-56
2024/01/31 07:31:19;;;;;;;16.70;9.97;;;8.80;99.90;;;;;;5053561;28;20834;-56
2024/01/31 07:33:46;;;;;;;23.53;9.50;;;8.80;99.90;;;;;;5053510;28;20466;-56
2024/01/31 07:36:13;;;;;;;18.70;8.73;;;8.80;99.90;;;;;;5053425;28;20455;-55
2024/01/31 07:38:42;;;;;;;22.27;9.40;;;8.80;99.90;;;;;;5053301;28;20936;-56
2024/01/31 07:41:09;;;;;;;17.53;9.13;;;8.80;99.90;;;;;;5053428;28;20882;-56
2024/01/31 07:43:36;;;;;;;14.57;9.10;;;8.80;99.90;;;;;;5053367;28;20468;-56
2024/01/31 07:46:03;;;;;;;20.63;8.73;;;8.80;99.90;;;;;;5053466;28;20452;-56
2024/01/31 07:48:32;;;;;;;15.93;7.83;;;8.80;99.90;;;;;;5053210;28;20481;-56
2024/01/31 07:50:58;;;;;;;16.10;9.00;;;8.80;99.90;;;;;;5053505;28;20438;-56
2024/01/31 07:53:25;;;;;;;18.80;8.27;;;8.80;99.90;;;;;;5052789;28;20481;-57
2024/01/31 07:55:52;;;;;;;16.10;8.00;;;8.80;99.90;;;;;;5053258;28;20809;-56
2024/01/31 07:58:18;;;;;;;17.13;8.23;;;8.80;99.90;;;;;;5053042;28;20499;-56
2024/01/31 08:00:45;;;;;;;14.93;7.90;;;8.80;99.90;;;;;;5052915;28;20450;-56
2024/01/31 08:03:12;;;;;;;16.93;9.20;;;8.90;99.90;;;;;;5053277;28;20445;-56
2024/01/31 08:05:40;;;;;;;13.77;8.23;;;8.90;99.90;;;;;;5053155;28;20469;-56
2024/01/31 08:08:07;;;;;;;13.67;8.03;;;8.80;99.90;;;;;;5053139;28;20481;-56
2024/01/31 08:10:34;;;;;;;13.70;8.13;;;8.80;99.90;;;;;;5053288;28;20486;-56
2024/01/31 08:13:00;;;;;;;14.03;7.30;;;8.90;99.90;;;;;;5053012;28;20856;-56
2024/01/31 08:15:27;;;;;;;12.90;8.27;;;8.90;99.90;;;;;;5053086;28;20465;-56
2024/01/31 08:17:54;;;;;;;11.47;7.30;;;8.90;99.90;;;;;;5053098;28;20446;-56
2024/01/31 08:20:21;;;;;;;12.37;7.50;;;9.00;99.90;;;;;;5053292;28;20452;-56
2024/01/31 08:22:49;;;;;;;16.93;9.17;;;9.00;99.90;;;;;;5053043;28;20504;-56
2024/01/31 08:25:15;;;;;;;12.23;7.40;;;9.00;99.90;;;;;;5053189;28;20468;-56
2024/01/31 08:27:42;;;;;;;12.17;7.33;;;9.00;99.90;;;;;;5052072;28;20960;-56
2024/01/31 08:30:10;;;;;;;12.20;7.37;;;9.00;99.90;;;;;;5062524;28;20523;-56
2024/01/31 08:32:37;;;;;;;11.17;7.30;;;9.00;99.90;;;;;;5073668;28;20445;-56
2024/01/31 08:35:04;;;;;;;9.03;6.73;;;9.00;99.90;;;;;;5072838;28;21004;-56
2024/01/31 08:37:31;;;;;;;14.57;8.00;;;9.00;99.90;;;;;;5072927;28;20479;-56
2024/01/31 08:39:59;;;;;;;12.60;7.53;;;9.10;99.90;;;;;;5072920;28;20449;-56
2024/01/31 08:42:28;;;;;;;13.27;7.50;;;9.00;99.90;;;;;;5072938;28;20452;-56
2024/01/31 08:44:55;;;;;;;13.93;6.80;;;9.10;99.90;;;;;;5072512;28;21062;-56
2024/01/31 08:47:22;;;;;;;13.07;7.83;;;9.10;99.90;;;;;;5072777;28;20487;-56
2024/01/31 08:49:48;;;;;;;11.57;7.57;;;9.10;99.90;;;;;;5072830;28;20453;-56
2024/01/31 08:52:15;;;;;;;14.00;8.53;;;9.10;99.90;;;;;;5072490;28;20452;-56
2024/01/31 08:54:42;;;;;;;15.07;8.50;;;9.10;99.90;;;;;;5072595;28;20468;-56
2024/01/31 08:57:10;;;;;;;11.77;7.33;;;9.10;99.90;;;;;;5072869;28;20456;-56
2024/01/31 08:59:37;;;;;;;13.70;7.40;;;9.10;99.90;;;;;;5072987;28;20448;-56
2024/01/31 09:02:04;;;;;;;19.93;9.50;;;9.10;99.90;;;;;;5072427;28;20946;-56
2024/01/31 09:04:31;;;;;;;15.47;7.73;;;9.10;99.90;;;;;;5072666;28;20461;-56
2024/01/31 09:06:57;;;;;;;15.10;8.03;;;9.20;99.90;;;;;;5072646;28;20502;-56
2024/01/31 09:09:24;;;;;;;13.00;7.80;;;9.20;99.90;;;;;;5072579;28;20487;-56
2024/01/31 09:11:51;;;;;;;21.30;8.07;;;9.20;99.90;;;;;;5074760;28;20483;-56
2024/01/31 09:14:19;;;;;;;17.83;8.50;;;9.30;99.90;;;;;;5075849;28;20467;-56
2024/01/31 09:16:46;;;;;;;14.40;7.13;;;9.30;99.90;;;;;;5076481;28;20441;-56
2024/01/31 09:19:13;;;;;;;12.03;7.13;;;9.30;99.90;;;;;;5076177;28;20440;-56
2024/01/31 09:21:39;;;;;;;13.07;7.67;;;9.30;99.90;;;;;;5075787;28;20949;-56
2024/01/31 09:24:08;;;;;;;12.10;7.07;;;9.30;99.90;;;;;;5075811;28;20966;-56
2024/01/31 09:26:34;;;;;;;17.40;10.23;;;9.40;99.90;;;;;;5076066;28;20813;-56
2024/01/31 09:29:02;;;;;;;21.90;11.10;;;9.40;99.90;;;;;;5075730;28;20849;-56
2024/01/31 09:31:30;;;;;;;16.80;9.67;;;9.40;99.90;;;;;;5075962;28;20475;-56
2024/01/31 09:33:56;;;;;;;19.63;10.17;;;9.40;99.90;;;;;;5075465;28;20460;-56
2024/01/31 09:36:23;;;;;;;18.87;8.27;;;9.40;99.90;;;;;;5075833;28;20440;-56
2024/01/31 09:38:51;;;;;;;16.03;7.60;;;9.40;99.90;;;;;;5075804;28;20444;-56
2024/01/31 09:41:18;;;;;;;10.07;7.37;;;9.40;99.90;;;;;;5075986;28;20467;-57
2024/01/31 09:43:45;;;;;;;10.93;7.43;;;9.40;99.90;;;;;;5076151;28;20469;-56
2024/01/31 09:46:12;;;;;;;17.80;8.20;;;9.50;99.90;;;;;;5076084;28;20830;-56
2024/01/31 09:48:41;;;;;;;12.00;7.70;;;9.50;99.90;;;;;;5076363;28;20930;-56
2024/01/31 09:51:08;;;;;;;17.43;8.53;;;9.50;99.90;;;;;;5075852;28;20449;-56
2024/01/31 09:53:37;;;;;;;18.00;7.80;;;9.50;99.90;;;;;;5075119;28;21021;-56
2024/01/31 09:56:05;;;;;;;15.50;8.40;;;9.50;99.90;;;;;;5075481;28;20811;-55
2024/01/31 09:58:32;;;;;;;17.30;9.20;;;9.50;99.90;;;;;;5075610;28;20520;-56
2024/01/31 10:01:00;;;;;;;15.73;8.67;;;9.50;99.90;;;;;;5075644;28;20448;-56
2024/01/31 10:03:27;;;;;;;16.60;8.93;;;9.50;99.90;;;;;;5075312;28;20437;-56
2024/01/31 10:05:55;;;;;;;25.10;11.70;;;9.50;99.90;;;;;;5075286;28;20445;-56
2024/01/31 10:08:22;;;;;;;21.50;9.83;;;9.50;99.90;;;;;;5075376;28;20495;-56
2024/01/31 10:10:48;;;;;;;22.33;10.23;;;9.50;99.90;;;;;;5075543;28;20804;-56
2024/01/31 10:13:17;;;;;;;25.47;11.13;;;9.50;99.90;;;;;;5075063;28;20456;-56
2024/01/31 10:15:44;;;;;;;24.50;12.80;;;9.60;99.90;;;;;;5075046;28;20433;-56
2024/01/31 10:18:11;;;;;;;23.80;12.10;;;9.60;99.90;;;;;;5075359;28;20543;-56
2024/01/31 10:20:38;;;;;;;22.27;12.20;;;9.60;99.90;;;;;;5075027;28;20471;-56
2024/01/31 10:23:06;;;;;;;20.63;12.23;;;9.60;99.90;;;;;;5074871;28;20441;-56
2024/01/31 10:25:32;;;;;;;23.47;13.40;;;9.60;99.90;;;;;;5074820;28;20468;-56
2024/01/31 10:28:00;;;;;;;23.67;13.33;;;9.70;99.90;;;;;;5074700;28;20476;-56
2024/01/31 10:30:27;;;;;;;21.30;13.43;;;9.70;99.90;;;;;;5074809;28;20436;-56
2024/01/31 10:32:55;;;;;;;21.30;14.47;;;9.80;99.90;;;;;;5070847;28;20437;-56
2024/01/31 10:35:22;;;;;;;23.73;15.83;;;9.90;99.90;;;;;;5056830;28;21014;-56
2024/01/31 10:37:50;;;;;;;24.93;14.00;;;10.00;99.90;;;;;;5054757;28;20454;-56
2024/01/31 10:40:19;;;;;;;22.93;15.00;;;10.00;99.90;;;;;;5054497;28;20442;-56
2024/01/31 10:42:47;;;;;;;21.40;14.50;;;10.00;99.90;;;;;;5054644;28;20473;-56
2024/01/31 10:45:15;;;;;;;23.60;14.97;;;10.10;99.90;;;;;;5054371;28;21057;-56
2024/01/31 10:47:42;;;;;;;26.27;17.23;;;10.10;99.90;;;;;;5054634;28;20449;-55
2024/01/31 10:50:10;;;;;;;25.47;16.63;;;10.10;99.90;;;;;;5054683;28;20469;-56
2024/01/31 10:52:38;;;;;;;25.07;17.63;;;10.10;99.90;;;;;;5054145;28;20488;-56
2024/01/31 10:55:06;;;;;;;23.07;16.23;;;10.10;99.90;;;;;;5054581;28;20464;-56
2024/01/31 10:57:37;;;;;;;24.50;15.57;;;10.10;99.90;;;;;;5054478;28;20445;-56
2024/01/31 11:00:08;;;;;;;26.00;15.77;;;10.20;99.90;;;;;;5054401;28;20432;-56
2024/01/31 11:02:35;;;;;;;28.93;16.33;;;10.20;99.90;;;;;;5054340;28;20453;-56
2024/01/31 11:05:04;;;;;;;23.47;16.13;;;10.20;99.90;;;;;;5054367;28;20468;-56
2024/01/31 11:07:30;;;;;;;25.40;14.67;;;10.20;99.90;;;;;;5054112;28;20500;-56
2024/01/31 11:09:58;;;;;;;24.30;15.10;;;10.20;99.90;;;;;;5053968;28;20481;-56
2024/01/31 11:12:28;;;;;;;22.43;14.77;;;10.30;99.90;;;;;;5054272;28;20441;-56
2024/01/31 11:14:58;;;;;;;19.70;13.93;;;10.30;99.90;;;;;;5053634;28;20495;-56
2024/01/31 11:17:27;;;;;;;22.10;16.53;;;10.30;99.90;;;;;;5053949;28;20445;-56
2024/01/31 11:19:56;;;;;;;22.10;15.13;;;10.30;99.90;;;;;;5053805;28;20442;-56
2024/01/31 11:22:23;;;;;;;22.17;14.67;;;10.30;99.90;;;;;;5053879;28;20446;-56
2024/01/31 11:24:53;;;;;;;19.73;13.90;;;10.30;99.90;;;;;;5053559;28;20991;-56
2024/01/31 11:27:20;;;;;;;20.40;13.83;;;10.30;99.90;;;;;;5053812;28;20452;-56
2024/01/31 11:29:50;;;;;;;21.57;15.13;;;10.40;99.90;;;;;;5053825;28;20485;-56
2024/01/31 11:32:18;;;;;;;18.63;12.40;;;10.40;99.90;;;;;;5053798;28;20446;-56
2024/01/31 11:34:45;;;;;;;15.57;10.53;;;10.50;99.90;;;;;;5052910;28;20874;-56
2024/01/31 11:37:12;;;;;;;12.70;11.07;;;10.60;99.90;;;;;;5053301;28;20931;-56
2024/01/31 11:39:39;;;;;;;12.20;9.00;;;10.60;99.90;;;;;;5053706;28;20454;-56
2024/01/31 11:42:06;;;;;;;12.60;10.40;;;10.60;99.90;;;;;;5053586;28;20453;-56
2024/01/31 11:44:35;;;;;;;13.97;9.80;;;10.60;99.90;;;;;;5053560;28;20458;-56
2024/01/31 11:47:02;;;;;;;11.57;9.37;;;10.60;99.90;;;;;;5053556;28;20450;-56
2024/01/31 11:49:30;;;;;;;18.33;11.70;;;10.60;99.90;;;;;;5053332;28;20855;-56
2024/01/31 11:51:56;;;;;;;15.10;9.00;;;10.60;99.90;;;;;;5053350;28;20462;-56
2024/01/31 11:54:23;;;;;;;9.17;7.90;;;10.60;99.90;;;;;;5053247;28;20489;-56
2024/01/31 11:56:50;;;;;;;10.23;8.30;;;10.60;99.90;;;;;;5053252;28;20829;-56
2024/01/31 11:59:17;;;;;;;10.30;8.47;;;10.60;99.90;;;;;;5053398;28;20445;-56
2024/01/31 12:01:44;;;;;;;9.20;8.03;;;10.60;99.90;;;;;;5053251;28;20449;-56
2024/01/31 12:04:12;;;;;;;8.23;7.20;;;10.60;99.90;;;;;;5053186;28;20462;-56
2024/01/31 12:06:40;;;;;;;9.10;7.30;;;10.60;99.90;;;;;;5053259;28;20445;-56
2024/01/31 12:09:07;;;;;;;9.87;7.87;;;10.60;99.90;;;;;;5053212;28;20508;-56
2024/01/31 12:11:34;;;;;;;9.00;7.37;;;10.60;99.90;;;;;;5053186;28;20452;-56
2024/01/31 12:14:01;;;;;;;7.60;6.80;;;10.60;99.90;;;;;;5053094;28;20462;-56
2024/01/31 12:16:28;;;;;;;11.30;6.73;;;10.60;99.90;;;;;;5053227;28;20449;-56
2024/01/31 12:19:01;;;;;;;7.57;6.83;;;10.60;99.90;;;;;;5053166;28;20446;-56
2024/01/31 12:21:27;;;;;;;7.23;6.30;;;10.60;99.90;;;;;;5052827;28;20935;-56
2024/01/31 12:23:55;;;;;;;8.93;8.03;;;10.60;99.90;;;;;;5053166;28;20468;-56
2024/01/31 12:26:22;;;;;;;8.77;7.90;;;10.50;99.90;;;;;;5052876;28;20472;-56
2024/01/31 12:28:54;;;;;;;6.90;6.30;;;10.50;98.80;;;;;;5052957;28;20481;-56
2024/01/31 12:31:21;;;;;;;7.70;7.00;;;10.50;98.40;;;;;;5052988;28;20437;-56
2024/01/31 12:33:48;;;;;;;7.67;6.97;;;10.50;98.30;;;;;;5052773;28;20461;-56
2024/01/31 12:36:15;;;;;;;8.00;6.40;;;10.40;98.30;;;;;;5053124;28;20445;-56
2024/01/31 12:38:41;;;;;;;7.80;7.00;;;10.40;98.50;;;;;;5052774;28;20437;-56
2024/01/31 12:41:09;;;;;;;8.00;6.90;;;10.30;98.40;;;;;;5053015;28;20448;-56
2024/01/31 12:43:36;;;;;;;11.97;8.70;;;10.20;97.50;;;;;;5052703;28;20445;-56